This is the latest recevied weather packets stored in our database for station/object K1RFS. If no packets are shown the sender has not sent any weather packets the latest 10 day(s).
| Time | Temp. | Humidity | Pressure | Rain* | Wind** | Luminosity | Snow |
|---|---|---|---|---|---|---|---|
| 1787554422 | 21.67° C | 53% | 1006.5 hPa | 0 mm | - | 0 W/m² | - |
| 1787554117 | 21.67° C | 53% | 1006.6 hPa | 0 mm | - | 0 W/m² | - |
| 1787553812 | 21.67° C | 54% | 1006.8 hPa | 0 mm | - | 0 W/m² | - |
| 1787553508 | 21.67° C | 55% | 1006.6 hPa | 0 mm | - | 0 W/m² | - |
| 1787553204 | 21.11° C | 57% | 1006.6 hPa | 0 mm | - | 0 W/m² | - |
| 1787552901 | 21.11° C | 57% | 1006.6 hPa | 0 mm | - | 0 W/m² | - |
| 1787552597 | 21.11° C | 58% | 1006.8 hPa | 0 mm | - | 0 W/m² | - |
| 1787552293 | 21.11° C | 59% | 1007 hPa | 0 mm | - | 0 W/m² | - |
| 1787551992 | 21.67° C | 58% | 1006.5 hPa | 0 mm | - | 0 W/m² | - |
| 1787551687 | 21.67° C | 58% | 1006.6 hPa | 0 mm | - | 0 W/m² | - |
| 1787551382 | 21.11° C | 58% | 1006.6 hPa | 0 mm | - | 0 W/m² | - |
| 1787551075 | 21.11° C | 59% | 1006.8 hPa | 0 mm | - | 0 W/m² | - |
| 1787550770 | 21.67° C | 58% | 1007 hPa | 0 mm | - | 0 W/m² | - |
| 1787550466 | 21.67° C | 57% | 1006.8 hPa | 0 mm | - | 0 W/m² | - |
| 1787550162 | 21.67° C | 54% | 1006.8 hPa | 0 mm | - | 0 W/m² | - |
| 1787549858 | 22.22° C | 54% | 1006.9 hPa | 0 mm | - | 0 W/m² | - |
| 1787549553 | 22.22° C | 52% | 1006.6 hPa | 0 mm | - | 0 W/m² | - |
| 1787549248 | 22.22° C | 52% | 1006.5 hPa | 0 mm | - | 0 W/m² | - |
| 1787548944 | 22.22° C | 52% | 1005.7 hPa | 0 mm | - | 0 W/m² | - |
| 1787548640 | 21.67° C | 55% | 1005.8 hPa | 0 mm | - | 0 W/m² | - |
| 1787548336 | 21.67° C | 58% | 1005.8 hPa | 0 mm | - | 0 W/m² | - |
| 1787548031 | 23.33° C | 52% | 1006.5 hPa | 0 mm | - | 0 W/m² | - |
| 1787547726 | 24.44° C | 44% | 1007.2 hPa | 0 mm | - | 0 W/m² | - |
| 1787547421 | 24.44° C | 42% | 1007.1 hPa | 0 mm | - | 0 W/m² | - |
| 1787547116 | 23.89° C | 41% | 1007.1 hPa | 0 mm | - | 0 W/m² | - |
* Rain latest hour (hover to see other rain measurements)
** Current wind speed in m/s (hover to see current wind gust speed)